Gutsy Lady 4 — WDG7854 — position and weather

sailwx.info

Track history (hours):
 
Tides and Currents Weather Stations Pressure Air Temp Water Temp Dewpoint Dewpoint Depression Visibility Wind Speed Wind Dir Waves Ship Positions

Gutsy Lady 4

Owner: GUTSY LADY 4 LLC, HILO, HI. More information available from US FCC via Universal Licensing System and Coast Guard Vessel Documentation Center.

Last reported at 2017-Sep-20 10:03 UTC. Time now 2017-Dec-13 22:38 UTC.
Position N 32°40' W 117°21'.
Warning: this ship's position is months out of date.

; draft 4.5 m.

Type: . MMSI: 367571490.

Date/timePositionNaut miles runAvg speedWind from/ knotsBaromVisibWave heightAir tempDewpointWater temp
2017-Sep-20 10:03N 32°40' W 117°21'0 9.4
2017-Sep-20 10:00N 32°40' W 117°21'4 8.4
2017-Sep-20 09:30N 32°43' W 117°24'4 8.4
2017-Sep-20 09:01N 32°46' W 117°27'4 8.3
2017-Sep-20 08:30N 32°50' W 117°30'4 8.3
2017-Sep-20 08:00N 32°53' W 117°33'4 8.1
2017-Sep-20 07:31N 32°56' W 117°36'4 8.4
2017-Sep-20 07:01N 32°60' W 117°39'4 8.2
2017-Sep-20 06:30N 33°03' W 117°42'4 8.0
2017-Sep-20 06:00N 33°06' W 117°45'4 8.4
2017-Sep-20 05:30N 33°10' W 117°48'4 9.1
2017-Sep-20 05:00N 33°14' W 117°50'37 8.7
2017-Sep-20 00:48N 33°43' W 118°16'0 1.4
2017-Sep-20 00:30N 33°44' W 118°16'0 0.0
2017-Sep-19 22:31N 33°44' W 118°16'0 0.0
2017-Sep-19 22:22N 33°44' W 118°16'0 0.0
2017-Sep-19 22:01N 33°44' W 118°16'0 0.0
2017-Sep-19 21:28N 33°44' W 118°16'0 0.1
2017-Sep-19 20:54N 33°44' W 118°16'0 0.1
2017-Sep-19 20:13N 33°44' W 118°16'0 0.0
2017-Sep-19 19:42N 33°44' W 118°16'0 0.0
2017-Sep-19 19:24N 33°44' W 118°16'0 0.0
2017-Sep-19 18:16N 33°44' W 118°16'0 0.0
2017-Sep-19 15:00N 33°44' W 118°16'39 3.0
2017-Sep-19 02:19N 33°14' W 117°47'2 7.3
2017-Sep-19 02:00N 33°12' W 117°46'4 7.4
2017-Sep-19 01:30N 33°09' W 117°44'3 6.4
2017-Sep-19 01:00N 33°06' W 117°42'4 8.3
2017-Sep-19 00:31N 33°02' W 117°39'4 8.3
2017-Sep-19 00:00N 32°59' W 117°36'4 8.2
2017-Sep-18 23:31N 32°56' W 117°34'4 8.1
2017-Sep-18 23:01N 32°52' W 117°31'4 8.0
2017-Sep-18 22:31N 32°49' W 117°28'4 7.9
2017-Sep-18 22:01N 32°46' W 117°25'4 7.7
2017-Sep-18 21:31N 32°43' W 117°22'4 6.3
2017-Sep-18 20:54N 32°40' W 117°19'  
Track history (hours):
 
Tides and Currents Weather Stations Pressure Air Temp Water Temp Dewpoint Dewpoint Depression Visibility Wind Speed Wind Dir Waves Ship Positions

Gutsy Lady 4

Owner: GUTSY LADY 4 LLC, HILO, HI. More information available from US FCC via Universal Licensing System and Coast Guard Vessel Documentation Center.

Last reported at 2017-Sep-20 10:03 UTC. Time now 2017-Dec-13 22:38 UTC.
Position N 32°40' W 117°21'.
Warning: this ship's position is months out of date.

; draft 4.5 m.

Type: . MMSI: 367571490.

Date/timePositionNaut miles runAvg speedWind from/ knotsBaromVisibWave heightAir tempDewpointWater temp
2017-Sep-20 10:03N 32°40' W 117°21'0 9.4
2017-Sep-20 10:00N 32°40' W 117°21'4 8.4
2017-Sep-20 09:30N 32°43' W 117°24'4 8.4
2017-Sep-20 09:01N 32°46' W 117°27'4 8.3
2017-Sep-20 08:30N 32°50' W 117°30'4 8.3
2017-Sep-20 08:00N 32°53' W 117°33'4 8.1
2017-Sep-20 07:31N 32°56' W 117°36'4 8.4
2017-Sep-20 07:01N 32°60' W 117°39'4 8.2
2017-Sep-20 06:30N 33°03' W 117°42'4 8.0
2017-Sep-20 06:00N 33°06' W 117°45'4 8.4
2017-Sep-20 05:30N 33°10' W 117°48'4 9.1
2017-Sep-20 05:00N 33°14' W 117°50'37 8.7
2017-Sep-20 00:48N 33°43' W 118°16'0 1.4
2017-Sep-20 00:30N 33°44' W 118°16'0 0.0
2017-Sep-19 22:31N 33°44' W 118°16'0 0.0
2017-Sep-19 22:22N 33°44' W 118°16'0 0.0
2017-Sep-19 22:01N 33°44' W 118°16'0 0.0
2017-Sep-19 21:28N 33°44' W 118°16'0 0.1
2017-Sep-19 20:54N 33°44' W 118°16'0 0.1
2017-Sep-19 20:13N 33°44' W 118°16'0 0.0
2017-Sep-19 19:42N 33°44' W 118°16'0 0.0
2017-Sep-19 19:24N 33°44' W 118°16'0 0.0
2017-Sep-19 18:16N 33°44' W 118°16'0 0.0
2017-Sep-19 15:00N 33°44' W 118°16'39 3.0
2017-Sep-19 02:19N 33°14' W 117°47'2 7.3
2017-Sep-19 02:00N 33°12' W 117°46'4 7.4
2017-Sep-19 01:30N 33°09' W 117°44'3 6.4
2017-Sep-19 01:00N 33°06' W 117°42'4 8.3
2017-Sep-19 00:31N 33°02' W 117°39'4 8.3
2017-Sep-19 00:00N 32°59' W 117°36'4 8.2
2017-Sep-18 23:31N 32°56' W 117°34'4 8.1
2017-Sep-18 23:01N 32°52' W 117°31'4 8.0
2017-Sep-18 22:31N 32°49' W 117°28'4 7.9
2017-Sep-18 22:01N 32°46' W 117°25'4 7.7
2017-Sep-18 21:31N 32°43' W 117°22'4 6.3
2017-Sep-18 20:54N 32°40' W 117°19'  

Dump ship's entire track history